Time;durP1;ratioP1;P1;durP2;ratioP2;P2;SDS_P1;SDS_P2;PMS_P1;PMS_P2;Temp;Humidity;BMP_temperature;BMP_pressure;BME280_temperature;BME280_humidity;BME280_pressure;Samples;Min_cycle;Max_cycle;Signal;HPM_P1;HPM_P2
2022/02/19 00:00:14;;;;;;;23.95;1.73;;;6.40;99.90;;;;;;4943937;29;20051;-85
2022/02/19 00:02:40;;;;;;;12.07;2.50;;;6.30;99.90;;;;;;4920309;29;20101;-85
2022/02/19 00:05:05;;;;;;;5.82;1.02;;;6.20;99.90;;;;;;4942520;28;20027;-85
2022/02/19 00:07:31;;;;;;;9.98;1.40;;;6.20;99.90;;;;;;4919249;28;20043;-85
2022/02/19 00:09:57;;;;;;;5.10;1.25;;;6.10;99.90;;;;;;4911653;29;21327;-85
2022/02/19 00:12:23;;;;;;;10.25;1.98;;;6.00;99.90;;;;;;4921286;28;20122;-85
2022/02/19 00:14:48;;;;;;;11.20;1.48;;;6.00;99.90;;;;;;4926048;28;20044;-86
2022/02/19 00:17:14;;;;;;;13.98;1.98;;;6.00;99.90;;;;;;4924018;28;20036;-86
2022/02/19 00:19:39;;;;;;;3.92;0.75;;;5.90;99.90;;;;;;4923372;28;20035;-86
2022/02/19 00:22:05;;;;;;;6.82;1.45;;;5.90;99.90;;;;;;4951530;28;20042;-86
2022/02/19 00:24:32;;;;;;;15.73;2.13;;;5.80;99.90;;;;;;4924150;29;20036;-87
2022/02/19 00:26:58;;;;;;;9.82;1.80;;;5.80;99.90;;;;;;4925704;29;20725;-87
2022/02/19 00:29:24;;;;;;;10.07;2.05;;;5.70;99.90;;;;;;4926825;29;20284;-86
2022/02/19 00:31:50;;;;;;;7.93;1.50;;;5.70;99.90;;;;;;4906097;28;20042;-86
2022/02/19 00:34:16;;;;;;;6.65;1.13;;;5.70;99.90;;;;;;4926678;29;20043;-86
2022/02/19 00:36:41;;;;;;;2.75;0.82;;;5.70;99.90;;;;;;4927524;28;20067;-87
2022/02/19 00:39:07;;;;;;;16.00;1.55;;;5.70;99.90;;;;;;4944111;28;20027;-87
2022/02/19 00:41:33;;;;;;;5.40;1.00;;;5.70;99.90;;;;;;4921376;28;20055;-86
2022/02/19 00:44:00;;;;;;;7.18;1.17;;;5.70;99.90;;;;;;4926812;28;20407;-87
2022/02/19 00:46:26;;;;;;;8.10;1.27;;;5.60;99.90;;;;;;4913651;28;20043;-87
2022/02/19 00:48:52;;;;;;;11.63;2.30;;;5.70;99.90;;;;;;4927075;28;20103;-87
2022/02/19 00:51:17;;;;;;;5.05;1.35;;;5.60;99.90;;;;;;4922322;29;20032;-85
2022/02/19 00:53:43;;;;;;;6.60;2.03;;;5.60;99.90;;;;;;4928305;28;20043;-85
2022/02/19 00:56:09;;;;;;;6.55;1.50;;;5.70;99.90;;;;;;4941152;28;20154;-85
2022/02/19 00:58:37;;;;;;;5.85;1.48;;;5.60;99.90;;;;;;4914224;28;20523;-84
2022/02/19 01:01:03;;;;;;;6.18;2.10;;;5.60;99.90;;;;;;4911550;29;20403;-85
2022/02/19 01:03:30;;;;;;;7.50;2.20;;;5.60;99.90;;;;;;4927309;28;20035;-85
2022/02/19 01:05:55;;;;;;;8.73;0.80;;;5.50;99.90;;;;;;4921134;28;20047;-85
2022/02/19 01:08:21;;;;;;;4.72;0.90;;;5.60;99.90;;;;;;4943487;29;20447;-85
2022/02/19 01:10:48;;;;;;;8.95;2.05;;;5.60;99.90;;;;;;4927461;29;20564;-85
2022/02/19 01:13:13;;;;;;;9.70;1.25;;;5.50;99.90;;;;;;4944795;28;20507;-85
2022/02/19 01:15:41;;;;;;;3.58;1.40;;;5.50;99.90;;;;;;4922412;28;20043;-85
2022/02/19 01:18:07;;;;;;;10.07;1.33;;;5.50;99.90;;;;;;4947276;28;20502;-84
2022/02/19 01:20:33;;;;;;;7.75;1.75;;;5.60;99.90;;;;;;4926973;29;20084;-85
2022/02/19 01:22:59;;;;;;;6.57;1.42;;;5.40;99.90;;;;;;4933215;29;20165;-87
2022/02/19 01:25:24;;;;;;;12.80;1.50;;;5.40;99.90;;;;;;4939062;29;20039;-87
2022/02/19 01:27:50;;;;;;;8.70;1.38;;;5.30;99.90;;;;;;4926035;29;20027;-87
2022/02/19 01:30:15;;;;;;;6.72;1.92;;;5.30;99.90;;;;;;4930093;28;20039;-85
2022/02/19 01:32:41;;;;;;;3.00;1.45;;;5.30;99.90;;;;;;4920173;28;20038;-85
2022/02/19 01:35:06;;;;;;;8.57;1.98;;;5.30;99.90;;;;;;4907154;28;20435;-85
2022/02/19 01:37:32;;;;;;;7.25;2.08;;;5.30;99.90;;;;;;4932152;28;20045;-85
2022/02/19 01:39:58;;;;;;;7.07;1.10;;;5.30;99.90;;;;;;4927555;28;20470;-84
2022/02/19 01:42:23;;;;;;;6.80;1.35;;;5.30;99.90;;;;;;4926456;28;20092;-87
2022/02/19 01:44:51;;;;;;;8.52;2.05;;;5.40;99.90;;;;;;4917524;28;20452;-87
2022/02/19 01:47:16;;;;;;;6.22;1.13;;;5.40;99.90;;;;;;4928746;29;20039;-87
2022/02/19 01:49:42;;;;;;;9.30;1.58;;;5.40;99.90;;;;;;4919164;28;20078;-87
2022/02/19 01:52:09;;;;;;;11.82;2.97;;;5.40;99.90;;;;;;4955334;28;20040;-87
2022/02/19 01:54:35;;;;;;;12.07;1.38;;;5.30;99.90;;;;;;4920339;29;20031;-87
2022/02/19 01:57:02;;;;;;;9.27;1.20;;;5.40;99.90;;;;;;4931397;29;20372;-87
2022/02/19 01:59:28;;;;;;;10.25;1.35;;;5.40;99.90;;;;;;4925761;28;20453;-87
2022/02/19 02:01:53;;;;;;;5.25;1.30;;;5.40;99.90;;;;;;4922561;28;20039;-86
2022/02/19 02:04:19;;;;;;;6.18;1.60;;;5.40;99.90;;;;;;4926375;29;20059;-87
2022/02/19 02:06:46;;;;;;;4.53;1.17;;;5.50;99.90;;;;;;4923458;29;20058;-87
2022/02/19 02:09:12;;;;;;;8.07;1.05;;;5.40;99.90;;;;;;4945293;28;20488;-87
2022/02/19 02:11:37;;;;;;;9.07;1.35;;;5.40;99.90;;;;;;4929053;29;20083;-88
2022/02/19 02:14:04;;;;;;;7.30;1.60;;;5.50;99.90;;;;;;4926838;28;20035;-87
2022/02/19 02:16:36;;;;;;;5.15;1.23;;;5.50;99.90;;;;;;4897959;28;20043;-87
2022/02/19 02:19:02;;;;;;;5.13;1.23;;;5.50;99.90;;;;;;4931556;28;20395;-86
2022/02/19 02:21:30;;;;;;;13.07;1.25;;;5.40;99.90;;;;;;4922009;28;20028;-87
2022/02/19 02:23:56;;;;;;;6.53;1.30;;;5.50;99.90;;;;;;4948361;28;20077;-86
2022/02/19 02:26:22;;;;;;;6.55;1.27;;;5.40;99.90;;;;;;4913644;29;20130;-87
2022/02/19 02:28:48;;;;;;;10.07;1.02;;;5.40;99.90;;;;;;4926683;29;20035;-88
2022/02/19 02:31:14;;;;;;;10.75;0.77;;;5.50;99.90;;;;;;4927107;28;20046;-87
2022/02/19 02:33:40;;;;;;;5.13;1.38;;;5.50;99.90;;;;;;4926923;29;20043;-87
2022/02/19 02:36:06;;;;;;;4.70;1.02;;;5.50;99.90;;;;;;4944904;28;20043;-87
2022/02/19 02:38:31;;;;;;;9.90;1.95;;;5.50;99.90;;;;;;4912627;28;20031;-87
2022/02/19 02:40:57;;;;;;;3.92;1.80;;;5.60;99.90;;;;;;4942431;28;20044;-87
2022/02/19 02:43:22;;;;;;;6.18;1.05;;;5.50;99.90;;;;;;4916775;29;20387;-87
2022/02/19 02:45:48;;;;;;;8.73;1.33;;;5.60;99.90;;;;;;4926096;29;20418;-87
2022/02/19 02:48:14;;;;;;;10.50;1.20;;;5.60;99.90;;;;;;4922857;29;20493;-85
2022/02/19 02:50:40;;;;;;;10.82;1.65;;;5.50;99.90;;;;;;4925165;29;20039;-85
2022/02/19 02:53:05;;;;;;;6.50;2.00;;;5.60;99.90;;;;;;4947343;28;20031;-86
2022/02/19 02:55:31;;;;;;;5.25;1.65;;;5.60;99.90;;;;;;4942517;28;20071;-86
2022/02/19 02:57:59;;;;;;;6.47;1.35;;;5.50;99.90;;;;;;4928261;29;20031;-85
2022/02/19 03:00:24;;;;;;;7.38;2.08;;;5.60;99.90;;;;;;4913478;28;20558;-84
2022/02/19 03:02:50;;;;;;;5.85;1.58;;;5.50;99.90;;;;;;4929644;29;20131;-85
2022/02/19 03:05:17;;;;;;;5.72;1.63;;;5.70;99.90;;;;;;4944611;29;20308;-85
2022/02/19 03:07:42;;;;;;;8.57;1.83;;;5.60;99.90;;;;;;4915005;28;20047;-85
2022/02/19 03:10:08;;;;;;;11.20;2.55;;;5.40;99.90;;;;;;4945002;28;20081;-85
2022/02/19 03:12:34;;;;;;;8.38;0.90;;;5.50;99.90;;;;;;4912689;28;20118;-85
2022/02/19 03:15:00;;;;;;;23.00;1.77;;;5.60;99.90;;;;;;4923550;28;20042;-85
2022/02/19 03:17:26;;;;;;;5.55;1.35;;;5.60;99.90;;;;;;4912011;28;20024;-86
2022/02/19 03:19:51;;;;;;;4.40;1.13;;;5.50;99.90;;;;;;4926263;29;20447;-86
2022/02/19 03:22:17;;;;;;;5.32;1.42;;;5.50;99.90;;;;;;4925854;29;20028;-85
2022/02/19 03:24:42;;;;;;;3.83;1.05;;;5.50;99.90;;;;;;4928420;29;20043;-85
2022/02/19 03:27:08;;;;;;;5.35;2.13;;;5.40;99.90;;;;;;4926203;29;20090;-86
2022/02/19 03:29:35;;;;;;;5.60;1.73;;;5.40;99.90;;;;;;4923572;28;20531;-86
2022/02/19 03:32:02;;;;;;;6.65;1.15;;;5.40;99.90;;;;;;4930720;28;20046;-85
2022/02/19 03:34:27;;;;;;;7.97;1.70;;;5.40;99.90;;;;;;4940223;28;20035;-86
2022/02/19 03:36:53;;;;;;;4.88;1.17;;;5.30;99.90;;;;;;4910749;29;20047;-86
2022/02/19 03:39:18;;;;;;;9.68;1.77;;;5.40;99.90;;;;;;4926773;28;20035;-86
2022/02/19 03:41:44;;;;;;;5.10;1.00;;;5.30;99.90;;;;;;4933917;28;20039;-86
2022/02/19 03:44:09;;;;;;;6.47;1.35;;;5.30;99.90;;;;;;4945346;28;20039;-85
2022/02/19 03:46:38;;;;;;;3.80;1.17;;;5.30;99.90;;;;;;4922620;28;20059;-85
2022/02/19 03:49:04;;;;;;;8.35;1.17;;;5.30;99.90;;;;;;4924851;28;20048;-85
2022/02/19 03:51:33;;;;;;;8.68;1.48;;;5.20;99.90;;;;;;4928750;28;20034;-88
2022/02/19 03:53:58;;;;;;;9.32;1.42;;;5.20;99.90;;;;;;4906968;29;20031;-89
2022/02/19 03:56:24;;;;;;;10.27;1.70;;;5.20;99.90;;;;;;4926434;28;20058;-89
2022/02/19 03:58:49;;;;;;;6.13;1.48;;;5.20;99.90;;;;;;4927133;29;20555;-89
2022/02/19 04:01:16;;;;;;;9.73;1.17;;;5.10;99.90;;;;;;4921230;28;20484;-86
2022/02/19 04:03:41;;;;;;;4.70;0.82;;;5.20;99.90;;;;;;4927607;28;20032;-86
2022/02/19 04:06:07;;;;;;;9.68;1.35;;;5.10;99.90;;;;;;4943918;29;20032;-86
2022/02/19 04:08:32;;;;;;;7.10;1.50;;;5.20;99.90;;;;;;4929621;28;20117;-85
2022/02/19 04:10:58;;;;;;;7.22;1.23;;;5.10;99.90;;;;;;4920678;29;20278;-85
2022/02/19 04:13:24;;;;;;;2.67;1.15;;;5.20;99.90;;;;;;4922995;29;20468;-85
2022/02/19 04:15:49;;;;;;;9.27;1.40;;;5.10;99.90;;;;;;4926661;28;20032;-85
2022/02/19 04:18:15;;;;;;;9.60;1.40;;;5.20;99.90;;;;;;4909823;29;20032;-85
2022/02/19 04:20:41;;;;;;;4.65;1.20;;;5.20;99.90;;;;;;4925883;28;20027;-86
2022/02/19 04:23:06;;;;;;;9.48;0.88;;;5.10;99.90;;;;;;4957074;28;20062;-85
2022/02/19 04:25:32;;;;;;;5.55;1.35;;;5.20;99.90;;;;;;4911393;29;20050;-85
2022/02/19 04:28:04;;;;;;;7.72;1.23;;;5.10;99.90;;;;;;4921809;28;20062;-85
2022/02/19 04:30:30;;;;;;;3.95;2.13;;;5.10;99.90;;;;;;4938553;28;20063;-85
2022/02/19 04:32:58;;;;;;;12.35;1.92;;;5.10;99.90;;;;;;4942519;28;20110;-85
2022/02/19 04:35:24;;;;;;;5.68;1.15;;;5.10;99.90;;;;;;4924788;28;20024;-85
2022/02/19 04:37:49;;;;;;;2.25;0.80;;;5.10;99.90;;;;;;4928676;28;20551;-85
2022/02/19 04:40:15;;;;;;;5.38;1.17;;;5.10;99.90;;;;;;4919009;29;20028;-85
2022/02/19 04:42:41;;;;;;;4.70;1.25;;;5.10;99.90;;;;;;4922543;28;20047;-85
2022/02/19 04:45:07;;;;;;;6.53;1.30;;;5.20;99.90;;;;;;4944917;28;20107;-85
2022/02/19 04:47:34;;;;;;;2.70;0.73;;;5.10;99.90;;;;;;4926450;28;20111;-85
2022/02/19 04:50:00;;;;;;;5.47;1.30;;;5.20;99.90;;;;;;4927307;29;20037;-85
2022/02/19 04:52:25;;;;;;;5.70;1.25;;;5.20;99.90;;;;;;4927234;29;20118;-85
2022/02/19 04:54:51;;;;;;;10.80;1.50;;;5.10;99.90;;;;;;4927570;28;20066;-85
2022/02/19 04:57:16;;;;;;;3.08;0.70;;;5.10;99.90;;;;;;4914240;28;20118;-85
2022/02/19 04:59:42;;;;;;;7.82;1.10;;;5.10;99.90;;;;;;4927536;28;20028;-85
2022/02/19 05:02:07;;;;;;;4.70;1.00;;;5.10;99.90;;;;;;4957472;28;20038;-85
2022/02/19 05:04:33;;;;;;;11.13;1.40;;;5.10;99.90;;;;;;4924971;28;20036;-85
2022/02/19 05:06:58;;;;;;;10.82;1.10;;;5.00;99.90;;;;;;4930789;29;20923;-85
2022/02/19 05:09:24;;;;;;;7.70;1.02;;;5.00;99.90;;;;;;4926030;29;20040;-85
2022/02/19 05:11:49;;;;;;;7.22;0.98;;;5.00;99.90;;;;;;4926515;29;20040;-85
2022/02/19 05:14:15;;;;;;;5.97;1.35;;;5.00;99.90;;;;;;4924762;29;20036;-85
2022/02/19 05:16:40;;;;;;;10.48;1.40;;;4.90;99.90;;;;;;4917013;29;20047;-86
2022/02/19 05:19:06;;;;;;;7.72;1.60;;;4.90;99.90;;;;;;4942706;28;20518;-86
2022/02/19 05:21:32;;;;;;;3.92;0.65;;;4.80;99.90;;;;;;4940836;29;20094;-85
2022/02/19 05:23:57;;;;;;;5.75;1.73;;;4.80;99.90;;;;;;4943993;29;20082;-85
2022/02/19 05:26:23;;;;;;;8.32;1.20;;;4.70;99.90;;;;;;4936366;29;20047;-86
2022/02/19 05:28:48;;;;;;;3.22;0.65;;;4.80;99.90;;;;;;4925665;28;20056;-85
2022/02/19 05:31:14;;;;;;;6.68;0.80;;;4.80;99.90;;;;;;4921707;29;20043;-85
2022/02/19 05:33:40;;;;;;;6.95;1.33;;;4.70;99.90;;;;;;4929966;29;20097;-85
2022/02/19 05:36:06;;;;;;;8.38;1.27;;;4.60;99.90;;;;;;4953778;28;20513;-86
2022/02/19 05:38:32;;;;;;;4.35;1.60;;;4.60;99.90;;;;;;4929027;29;20047;-84
2022/02/19 05:40:57;;;;;;;11.07;1.08;;;4.60;99.90;;;;;;4931196;29;20040;-85
2022/02/19 05:43:23;;;;;;;0.90;0.32;;;4.50;99.90;;;;;;4926056;28;20027;-84
2022/02/19 05:45:48;;;;;;;6.90;1.30;;;4.50;99.90;;;;;;4922904;28;20039;-85
2022/02/19 05:48:14;;;;;;;3.10;1.15;;;4.50;99.90;;;;;;4923637;29;20050;-85
2022/02/19 05:50:40;;;;;;;4.50;1.05;;;4.40;99.90;;;;;;4923029;28;20126;-85
2022/02/19 05:53:06;;;;;;;4.70;1.75;;;4.40;99.90;;;;;;4940575;28;20035;-84
2022/02/19 05:55:32;;;;;;;3.97;0.90;;;4.30;99.90;;;;;;4930428;29;20028;-84
2022/02/19 05:57:59;;;;;;;3.95;1.42;;;4.40;99.90;;;;;;4927768;29;20093;-84
2022/02/19 06:00:25;;;;;;;10.13;1.35;;;4.30;99.90;;;;;;4940120;28;20032;-85
2022/02/19 06:02:51;;;;;;;3.25;1.10;;;4.30;99.90;;;;;;4921481;29;20102;-84
2022/02/19 06:05:16;;;;;;;7.32;1.05;;;4.00;99.90;;;;;;4927807;28;20039;-84
2022/02/19 06:07:42;;;;;;;6.85;1.27;;;4.20;99.90;;;;;;4927659;29;20048;-84
2022/02/19 06:10:08;;;;;;;7.32;1.25;;;4.10;99.90;;;;;;4924495;29;20059;-84
2022/02/19 06:12:34;;;;;;;12.20;1.73;;;4.30;99.90;;;;;;4932121;29;20140;-84
2022/02/19 06:14:59;;;;;;;7.97;0.95;;;4.10;99.90;;;;;;4929404;29;20031;-85
2022/02/19 06:17:25;;;;;;;2.08;1.15;;;4.30;99.90;;;;;;4940702;29;20086;-85
2022/02/19 06:19:51;;;;;;;8.65;1.20;;;4.20;99.90;;;;;;4928703;29;20469;-84
2022/02/19 06:22:17;;;;;;;7.97;3.42;;;4.20;99.90;;;;;;4951097;28;20492;-84
2022/02/19 06:24:42;;;;;;;10.57;1.90;;;4.20;99.90;;;;;;4912906;29;20457;-84
2022/02/19 06:27:08;;;;;;;9.98;1.55;;;4.30;99.90;;;;;;4945673;29;20118;-85
2022/02/19 06:29:33;;;;;;;6.82;2.03;;;4.20;99.90;;;;;;4940495;28;20383;-84
2022/02/19 06:32:00;;;;;;;9.52;2.63;;;4.30;99.90;;;;;;4912535;29;20448;-85
2022/02/19 06:34:25;;;;;;;6.05;1.42;;;4.10;99.90;;;;;;4942613;28;20492;-85
2022/02/19 06:36:51;;;;;;;7.82;1.50;;;4.10;99.90;;;;;;4912250;28;20035;-85
2022/02/19 06:39:16;;;;;;;4.35;1.40;;;4.10;99.90;;;;;;4913402;28;20046;-85
2022/02/19 06:41:42;;;;;;;7.95;1.75;;;4.10;99.90;;;;;;4922209;29;20032;-85
2022/02/19 06:44:08;;;;;;;2.72;0.60;;;4.00;99.90;;;;;;4923686;29;20038;-85
2022/02/19 06:46:33;;;;;;;5.72;1.40;;;4.00;99.90;;;;;;4933185;28;20485;-84
2022/02/19 06:48:59;;;;;;;6.57;1.30;;;4.10;99.90;;;;;;4907619;29;20059;-85
2022/02/19 06:51:27;;;;;;;3.33;1.00;;;4.10;99.90;;;;;;4922533;28;20050;-84
2022/02/19 06:53:56;;;;;;;6.53;1.27;;;4.10;99.90;;;;;;4929844;29;20191;-85
2022/02/19 06:56:25;;;;;;;4.18;1.15;;;4.10;99.90;;;;;;4913073;28;20118;-84
2022/02/19 06:58:51;;;;;;;6.43;0.95;;;4.10;99.90;;;;;;4910587;29;20079;-85
2022/02/19 07:01:16;;;;;;;4.05;0.82;;;4.00;99.90;;;;;;4924936;28;20039;-85
2022/02/19 07:03:42;;;;;;;7.47;1.92;;;4.10;99.90;;;;;;4930532;28;20035;-85
2022/02/19 07:06:07;;;;;;;14.45;1.75;;;4.00;99.90;;;;;;4945432;29;20460;-85
2022/02/19 07:08:33;;;;;;;6.28;1.63;;;4.10;99.90;;;;;;4939793;28;20408;-84
2022/02/19 07:10:59;;;;;;;6.82;1.75;;;4.10;99.90;;;;;;4926304;29;20112;-85
2022/02/19 07:13:24;;;;;;;4.47;1.45;;;4.20;99.90;;;;;;4922624;29;20046;-85
2022/02/19 07:15:50;;;;;;;7.85;1.52;;;4.20;99.90;;;;;;4925494;28;20036;-84
2022/02/19 07:18:15;;;;;;;10.00;1.45;;;4.20;99.90;;;;;;4903701;29;20036;-85
2022/02/19 07:20:41;;;;;;;7.10;1.67;;;4.20;99.90;;;;;;4925470;29;20129;-85
2022/02/19 07:23:06;;;;;;;8.77;0.88;;;4.20;99.90;;;;;;4953588;28;20039;-85
2022/02/19 07:25:32;;;;;;;5.75;0.95;;;4.20;99.90;;;;;;4943292;29;20035;-84
2022/02/19 07:27:57;;;;;;;12.43;1.88;;;4.30;99.90;;;;;;4912425;28;20054;-85
2022/02/19 07:30:23;;;;;;;4.25;1.13;;;4.30;99.90;;;;;;4910033;29;20671;-85
2022/02/19 07:32:51;;;;;;;6.55;0.60;;;4.30;99.90;;;;;;4912040;29;20043;-85
2022/02/19 07:35:16;;;;;;;6.40;1.92;;;4.30;99.90;;;;;;4943571;29;20046;-85
2022/02/19 07:37:42;;;;;;;6.43;1.08;;;4.30;99.90;;;;;;4927682;29;20035;-84
2022/02/19 07:40:08;;;;;;;6.32;1.02;;;4.30;99.90;;;;;;4944803;28;20083;-84
2022/02/19 07:42:34;;;;;;;4.68;1.58;;;4.20;99.90;;;;;;4924880;29;20431;-85
2022/02/19 07:45:00;;;;;;;4.78;0.70;;;4.30;99.90;;;;;;4912374;29;20121;-85
2022/02/19 07:47:27;;;;;;;3.08;1.13;;;4.40;99.90;;;;;;4915648;28;20535;-85
2022/02/19 07:58:26;;;;;;;11.20;1.73;;;4.60;99.90;;;;;;4924297;29;20047;-86
2022/02/19 08:01:04;;;;;;;9.40;1.15;;;4.70;99.90;;;;;;4940057;28;20135;-86
2022/02/19 08:03:31;;;;;;;7.07;1.42;;;4.60;99.90;;;;;;4915686;29;20044;-86
2022/02/19 08:05:56;;;;;;;4.25;1.23;;;4.60;99.90;;;;;;4921673;28;20031;-86
2022/02/19 08:08:22;;;;;;;8.45;0.90;;;4.70;99.90;;;;;;4924809;28;20502;-87
2022/02/19 08:10:51;;;;;;;7.40;1.00;;;4.80;99.90;;;;;;4943871;28;20055;-86
2022/02/19 08:13:18;;;;;;;9.23;1.48;;;4.80;99.90;;;;;;4926767;28;20321;-86
2022/02/19 08:15:45;;;;;;;0.85;0.65;;;4.80;99.90;;;;;;4947356;28;20038;-86
2022/02/19 08:18:11;;;;;;;3.85;0.90;;;4.80;99.90;;;;;;4961193;28;20050;-86
2022/02/19 08:20:41;;;;;;;16.52;1.35;;;4.80;99.90;;;;;;4925110;28;20039;-85
2022/02/19 08:23:07;;;;;;;3.40;0.77;;;4.70;99.90;;;;;;4931365;28;20034;-85
2022/02/19 08:25:33;;;;;;;2.50;0.65;;;4.70;99.90;;;;;;4889029;29;20049;-85
2022/02/19 08:27:59;;;;;;;9.27;1.50;;;4.70;99.90;;;;;;4916208;28;20472;-86
2022/02/19 08:30:24;;;;;;;10.55;1.48;;;4.70;99.90;;;;;;4922364;29;20035;-84
2022/02/19 08:32:50;;;;;;;6.93;0.77;;;4.70;99.90;;;;;;4911186;29;20043;-86
2022/02/19 08:35:16;;;;;;;3.83;1.60;;;4.70;99.90;;;;;;4896112;29;20044;-86
2022/02/19 08:37:41;;;;;;;11.60;1.75;;;4.80;99.90;;;;;;4884004;29;20032;-86
2022/02/19 08:40:10;;;;;;;9.63;2.03;;;4.90;99.90;;;;;;4931884;28;20036;-85
2022/02/19 08:42:37;;;;;;;12.38;1.48;;;5.00;99.90;;;;;;4912522;29;20059;-84
2022/02/19 08:45:03;;;;;;;6.75;1.05;;;5.00;99.90;;;;;;4926127;29;20049;-84
2022/02/19 08:47:28;;;;;;;13.13;2.33;;;5.10;99.90;;;;;;4939481;29;20067;-84
2022/02/19 08:49:54;;;;;;;10.60;1.33;;;5.20;99.90;;;;;;4895139;28;20043;-86
2022/02/19 08:52:20;;;;;;;4.93;0.60;;;5.20;99.90;;;;;;4921370;29;20047;-85
2022/02/19 08:54:53;;;;;;;4.38;1.73;;;5.30;99.90;;;;;;4902923;28;20090;-85
2022/02/19 08:57:18;;;;;;;8.18;1.58;;;5.50;99.90;;;;;;4946474;28;20484;-85
2022/02/19 08:59:44;;;;;;;13.77;2.22;;;5.60;99.90;;;;;;4917821;28;20031;-84
2022/02/19 09:02:10;;;;;;;6.50;1.15;;;5.80;99.90;;;;;;4943774;28;20031;-85
2022/02/19 09:04:35;;;;;;;9.65;1.50;;;5.90;99.90;;;;;;4907955;29;20102;-85
2022/02/19 09:07:03;;;;;;;4.32;0.93;;;6.00;99.90;;;;;;4924575;28;20039;-85
2022/02/19 09:09:29;;;;;;;7.22;0.95;;;6.10;99.90;;;;;;4929478;28;20074;-85
2022/02/19 09:11:54;;;;;;;6.55;1.85;;;6.10;99.90;;;;;;4911415;28;20063;-85
2022/02/19 09:14:20;;;;;;;9.43;1.77;;;6.20;99.90;;;;;;4925814;29;20488;-85
2022/02/19 09:16:46;;;;;;;11.40;1.60;;;6.30;99.90;;;;;;4920954;28;20039;-85
2022/02/19 09:19:11;;;;;;;7.32;1.13;;;6.40;99.90;;;;;;4923321;29;20045;-85
2022/02/19 09:21:38;;;;;;;2.95;0.88;;;6.40;99.90;;;;;;4921635;29;20506;-86
2022/02/19 09:24:19;;;;;;;2.67;1.35;;;6.30;99.90;;;;;;4898571;29;20059;-86
2022/02/19 09:26:45;;;;;;;14.50;2.33;;;6.30;99.90;;;;;;4915047;29;20032;-86
2022/02/19 09:29:19;;;;;;;7.28;1.38;;;6.50;99.90;;;;;;4920556;28;20141;-86
2022/02/19 09:31:44;;;;;;;3.90;1.10;;;6.40;99.90;;;;;;4917346;28;20428;-85
2022/02/19 09:34:10;;;;;;;4.97;1.00;;;6.50;99.90;;;;;;4947428;28;20073;-85
2022/02/19 09:36:37;;;;;;;4.03;1.02;;;6.60;99.90;;;;;;4926747;28;20043;-86
2022/02/19 09:39:02;;;;;;;6.97;1.13;;;6.70;99.90;;;;;;4925903;28;20094;-85
2022/02/19 09:41:28;;;;;;;4.97;0.80;;;6.80;99.90;;;;;;4939971;28;20509;-86
2022/02/19 09:43:54;;;;;;;3.53;0.80;;;6.90;99.90;;;;;;4915512;28;20504;-86
2022/02/19 09:46:19;;;;;;;13.00;1.33;;;7.00;99.90;;;;;;4907865;29;20138;-86
2022/02/19 09:48:45;;;;;;;6.95;1.02;;;7.00;99.90;;;;;;4928218;28;20047;-86
2022/02/19 09:51:11;;;;;;;4.18;0.40;;;7.10;99.90;;;;;;4921168;29;20050;-86
2022/02/19 09:53:37;;;;;;;12.13;1.98;;;7.20;99.90;;;;;;4930842;28;21105;-86
2022/02/19 09:56:03;;;;;;;4.40;1.05;;;7.30;99.90;;;;;;4940837;28;20488;-86
2022/02/19 09:58:28;;;;;;;5.82;1.83;;;7.30;99.90;;;;;;4941752;28;20043;-87
2022/02/19 10:00:54;;;;;;;5.85;1.33;;;7.30;99.90;;;;;;4917165;28;20086;-87
2022/02/19 10:03:23;;;;;;;4.78;0.95;;;7.40;99.90;;;;;;4929589;29;20040;-85
2022/02/19 10:05:57;;;;;;;11.43;1.77;;;7.40;99.90;;;;;;4938986;28;20262;-86
2022/02/19 10:08:23;;;;;;;6.70;1.35;;;7.30;99.90;;;;;;4925223;28;20026;-86
2022/02/19 10:10:53;;;;;;;3.50;1.45;;;7.40;99.90;;;;;;4926325;28;20031;-86
2022/02/19 10:13:34;;;;;;;8.35;0.98;;;7.40;99.90;;;;;;4926366;28;20139;-85
2022/02/19 10:16:00;;;;;;;6.00;1.40;;;7.50;99.90;;;;;;4943997;29;20444;-86
2022/02/19 10:18:29;;;;;;;14.40;1.60;;;7.60;99.90;;;;;;4911527;28;20035;-86
2022/02/19 10:21:12;;;;;;;5.53;1.40;;;7.70;99.90;;;;;;4936772;28;20396;-86
2022/02/19 10:23:41;;;;;;;5.93;0.77;;;7.80;99.90;;;;;;4919294;29;20119;-86
2022/02/19 10:26:12;;;;;;;8.85;1.13;;;7.80;99.90;;;;;;4940791;28;20054;-86
2022/02/19 10:28:38;;;;;;;3.90;0.70;;;8.00;99.90;;;;;;4903190;28;20163;-86
2022/02/19 10:31:14;;;;;;;3.25;0.90;;;7.90;99.90;;;;;;4927790;29;20563;-86
2022/02/19 10:33:40;;;;;;;;;;;8.10;99.90;;;;;;4929404;28;20114;-86
2022/02/19 10:36:21;;;;;;;5.13;1.33;;;8.20;99.90;;;;;;4937232;28;20001;-86
2022/02/19 10:38:54;;;;;;;3.75;0.50;;;8.40;99.90;;;;;;4924987;29;20492;-87
2022/02/19 10:41:21;;;;;;;5.05;1.65;;;8.60;99.90;;;;;;4917419;29;20468;-86
2022/02/19 10:43:46;;;;;;;11.40;1.17;;;8.80;99.90;;;;;;4899913;28;20127;-86
2022/02/19 10:46:15;;;;;;;4.75;0.70;;;9.00;99.90;;;;;;4946988;28;20133;-86
2022/02/19 10:48:44;;;;;;;10.50;1.98;;;9.10;99.90;;;;;;4928772;28;20126;-87
2022/02/19 10:51:14;;;;;;;9.00;1.20;;;9.30;99.90;;;;;;4920032;29;20036;-86
2022/02/19 10:53:43;;;;;;;10.38;1.67;;;9.40;99.90;;;;;;4902298;29;20032;-87
2022/02/19 10:56:17;;;;;;;5.05;1.15;;;9.50;99.90;;;;;;4929559;28;20066;-87
2022/02/19 10:58:58;;;;;;;7.18;1.65;;;9.60;99.90;;;;;;4911557;28;20094;-87
2022/02/19 11:01:26;;;;;;;7.13;1.20;;;9.70;99.90;;;;;;4887426;28;20027;-87
2022/02/19 11:03:52;;;;;;;7.88;1.35;;;9.80;99.90;;;;;;4926842;29;20380;-87
2022/02/19 11:06:18;;;;;;;8.90;1.75;;;9.50;99.90;;;;;;4893225;29;20058;-87
2022/02/19 11:08:44;;;;;;;5.68;1.00;;;9.60;99.90;;;;;;4916877;28;20035;-87
2022/02/19 11:11:19;;;;;;;4.22;0.90;;;9.70;99.90;;;;;;4905551;28;21348;-87
2022/02/19 11:13:44;;;;;;;2.85;0.75;;;9.90;99.90;;;;;;4917737;29;20228;-87
2022/02/19 11:16:13;;;;;;;2.60;1.00;;;9.90;99.90;;;;;;4926222;29;20153;-87
2022/02/19 11:19:12;;;;;;;;;;;;;;;;;;;;;
2022/02/19 11:21:44;;;;;;;6.47;1.35;;;10.40;98.50;;;;;;4921481;28;21070;-87
2022/02/19 11:24:17;;;;;;;2.38;0.70;;;10.60;96.10;;;;;;4912564;29;20143;-87
2022/02/19 11:26:45;;;;;;;3.00;0.73;;;10.70;96.70;;;;;;4903081;29;20024;-87
2022/02/19 11:29:21;;;;;;;3.35;0.85;;;10.80;96.60;;;;;;4934398;28;20734;-87
2022/02/19 11:31:51;;;;;;;5.63;1.00;;;11.10;94.40;;;;;;4917648;29;20063;-87
2022/02/19 11:34:20;;;;;;;6.30;1.02;;;11.10;95.10;;;;;;4932315;28;20032;-87
2022/02/19 11:36:46;;;;;;;2.78;0.75;;;11.00;94.90;;;;;;4918677;29;20119;-87
2022/02/19 11:39:13;;;;;;;4.25;0.60;;;11.00;95.60;;;;;;4918821;28;20662;-87
2022/02/19 11:42:06;;;;;;;1.83;0.68;;;10.90;95.90;;;;;;4916495;28;20542;-87
2022/02/19 11:44:32;;;;;;;1.27;0.50;;;11.00;96.50;;;;;;4930655;28;20028;-86
2022/02/19 11:47:23;;;;;;;3.80;1.15;;;11.00;96.10;;;;;;4928901;28;20050;-87
2022/02/19 11:50:20;;;;;;;3.45;0.73;;;10.90;96.50;;;;;;4918908;28;20043;-87
2022/02/19 11:53:13;;;;;;;5.47;1.23;;;11.00;94.30;;;;;;4905103;29;20105;-87
2022/02/19 11:55:41;;;;;;;4.75;1.10;;;10.80;94.80;;;;;;4944201;28;20035;-87
2022/02/19 11:58:12;;;;;;;4.00;0.88;;;10.50;95.30;;;;;;4936470;28;20507;-87
2022/02/19 12:00:57;;;;;;;4.00;1.08;;;10.10;96.70;;;;;;4912472;28;20031;-86
2022/02/19 12:03:24;;;;;;;1.38;0.73;;;10.20;97.60;;;;;;4911952;29;20027;-86
2022/02/19 12:06:15;;;;;;;8.30;1.00;;;10.40;95.50;;;;;;4905454;29;20337;-87
2022/02/19 12:09:12;;;;;;;2.90;1.08;;;10.50;93.10;;;;;;4926360;28;20087;-86
2022/02/19 12:12:09;;;;;;;;;;;;;;;;;;;;;
2022/02/19 12:14:46;;;;;;;6.10;0.88;;;10.60;94.90;;;;;;4928147;28;20477;-86
2022/02/19 12:17:15;;;;;;;7.13;0.82;;;10.60;95.20;;;;;;4924013;28;20032;-87
2022/02/19 12:19:59;;;;;;;7.75;1.08;;;10.50;93.90;;;;;;4922631;29;20031;-85
2022/02/19 12:22:34;;;;;;;4.47;0.88;;;10.40;94.40;;;;;;4938411;28;20130;-85
2022/02/19 12:25:00;;;;;;;2.33;0.43;;;10.40;93.60;;;;;;4941293;28;20171;-85
2022/02/19 12:27:26;;;;;;;8.57;1.42;;;10.30;94.40;;;;;;4904748;29;20460;-85
2022/02/19 12:30:12;;;;;;;3.17;0.63;;;10.30;94.80;;;;;;4911457;29;20133;-85
2022/02/19 12:33:10;;;;;;;4.88;0.80;;;10.10;96.10;;;;;;5038742;23;20051;-86
2022/02/19 12:35:38;;;;;;;10.43;0.88;;;10.10;95.10;;;;;;4910596;28;20126;-85
2022/02/19 12:38:43;;;;;;;5.80;0.68;;;10.20;95.90;;;;;;4940444;28;20104;-85
2022/02/19 12:41:08;;;;;;;2.75;1.05;;;9.90;94.60;;;;;;4967028;28;20030;-85
2022/02/19 12:43:37;;;;;;;3.67;0.95;;;9.90;95.70;;;;;;4969143;28;20080;-86
2022/02/19 12:46:02;;;;;;;3.10;0.63;;;9.90;95.30;;;;;;4978388;28;20069;-86
2022/02/19 12:48:28;;;;;;;4.53;0.85;;;9.80;94.90;;;;;;4953438;28;20439;-86
2022/02/19 12:50:58;;;;;;;7.45;1.30;;;9.90;95.30;;;;;;4958363;28;20085;-86
2022/02/19 12:53:24;;;;;;;1.38;0.40;;;9.80;95.00;;;;;;4953321;28;20031;-86
2022/02/19 12:55:54;;;;;;;3.58;1.13;;;9.70;94.00;;;;;;4951429;28;20030;-86
2022/02/19 12:58:19;;;;;;;5.85;0.85;;;9.70;94.70;;;;;;4961370;28;20114;-86
2022/02/19 13:00:52;;;;;;;4.75;0.80;;;9.60;95.20;;;;;;4953365;28;20097;-86
2022/02/19 13:03:18;;;;;;;2.65;1.00;;;9.70;94.10;;;;;;4966881;28;20027;-86
2022/02/19 13:05:53;;;;;;;7.43;1.05;;;9.80;95.00;;;;;;4957749;28;20042;-87
2022/02/19 13:08:19;;;;;;;6.03;1.40;;;9.80;96.10;;;;;;4963343;28;20038;-87